sensor_id;sensor_type;location;lat;lon;timestamp;pressure;altitude;pressure_sealevel;temperature;humidity
69535;BME280;56754;51.568;5.048;2024-03-07T00:01:56;102499.41;;;11.68;66.69
69535;BME280;56754;51.568;5.048;2024-03-07T00:04:22;102504.25;;;11.66;66.75
69535;BME280;56754;51.568;5.048;2024-03-07T00:06:47;102498.38;;;11.64;66.88
69535;BME280;56754;51.568;5.048;2024-03-07T00:09:12;102505.88;;;11.61;66.75
69535;BME280;56754;51.568;5.048;2024-03-07T00:11:38;102510.72;;;11.59;66.70
69535;BME280;56754;51.568;5.048;2024-03-07T00:14:03;102507.50;;;11.57;66.48
69535;BME280;56754;51.568;5.048;2024-03-07T00:16:28;102504.28;;;11.55;66.40
69535;BME280;56754;51.568;5.048;2024-03-07T00:18:53;102512.88;;;11.52;67.14
69535;BME280;56754;51.568;5.048;2024-03-07T00:21:19;102518.50;;;11.51;66.34
69535;BME280;56754;51.568;5.048;2024-03-07T00:23:44;102507.53;;;11.47;66.75
69535;BME280;56754;51.568;5.048;2024-03-07T00:26:09;102516.94;;;11.45;66.51
69535;BME280;56754;51.568;5.048;2024-03-07T00:28:35;102512.91;;;11.42;66.73
69535;BME280;56754;51.568;5.048;2024-03-07T00:31:00;102510.50;;;11.41;66.75
69535;BME280;56754;51.568;5.048;2024-03-07T00:33:25;102503.56;;;11.39;67.24
69535;BME280;56754;51.568;5.048;2024-03-07T00:35:51;102513.47;;;11.39;66.80
69535;BME280;56754;51.568;5.048;2024-03-07T00:38:16;102499.25;;;11.38;67.12
69535;BME280;56754;51.568;5.048;2024-03-07T00:40:41;102499.53;;;11.37;66.89
69535;BME280;56754;51.568;5.048;2024-03-07T00:43:06;102492.59;;;11.36;66.89
69535;BME280;56754;51.568;5.048;2024-03-07T00:45:32;102491.78;;;11.35;67.29
69535;BME280;56754;51.568;5.048;2024-03-07T00:48:03;102486.72;;;11.34;67.01
69535;BME280;56754;51.568;5.048;2024-03-07T00:50:28;102487.78;;;11.33;67.20
69535;BME280;56754;51.568;5.048;2024-03-07T00:52:54;102488.59;;;11.33;67.36
69535;BME280;56754;51.568;5.048;2024-03-07T00:55:19;102492.06;;;11.34;67.44
69535;BME280;56754;51.568;5.048;2024-03-07T00:57:44;102490.47;;;11.33;67.69
69535;BME280;56754;51.568;5.048;2024-03-07T01:00:10;102489.94;;;11.31;67.42
69535;BME280;56754;51.568;5.048;2024-03-07T01:02:35;102484.56;;;11.31;67.71
69535;BME280;56754;51.568;5.048;2024-03-07T01:05:01;102489.38;;;11.29;67.26
69535;BME280;56754;51.568;5.048;2024-03-07T01:07:26;102484.31;;;11.27;67.36
69535;BME280;56754;51.568;5.048;2024-03-07T01:09:51;102485.38;;;11.26;67.21
69535;BME280;56754;51.568;5.048;2024-03-07T01:12:17;102485.66;;;11.25;67.59
69535;BME280;56754;51.568;5.048;2024-03-07T01:14:42;102485.66;;;11.25;67.68
69535;BME280;56754;51.568;5.048;2024-03-07T01:17:07;102492.06;;;11.24;67.51
69535;BME280;56754;51.568;5.048;2024-03-07T01:19:33;102483.53;;;11.22;67.51
69535;BME280;56754;51.568;5.048;2024-03-07T01:21:58;102483.00;;;11.20;67.72
69535;BME280;56754;51.568;5.048;2024-03-07T01:24:24;102481.66;;;11.17;67.68
69535;BME280;56754;51.568;5.048;2024-03-07T01:26:49;102483.53;;;11.16;68.14
69535;BME280;56754;51.568;5.048;2024-03-07T01:29:14;102483.00;;;11.14;67.91
69535;BME280;56754;51.568;5.048;2024-03-07T01:31:39;102474.19;;;11.14;67.71
69535;BME280;56754;51.568;5.048;2024-03-07T01:34:05;102476.84;;;11.14;68.04
69535;BME280;56754;51.568;5.048;2024-03-07T01:36:30;102472.84;;;11.11;67.96
69535;BME280;56754;51.568;5.048;2024-03-07T01:38:56;102471.25;;;11.10;67.71
69535;BME280;56754;51.568;5.048;2024-03-07T01:41:22;102468.84;;;11.09;68.14
69535;BME280;56754;51.568;5.048;2024-03-07T01:43:49;102465.66;;;11.07;67.66
69535;BME280;56754;51.568;5.048;2024-03-07T01:46:15;102471.25;;;11.05;67.82
69535;BME280;56754;51.568;5.048;2024-03-07T01:48:40;102468.88;;;11.04;68.06
69535;BME280;56754;51.568;5.048;2024-03-07T01:51:06;102469.13;;;11.02;67.95
69535;BME280;56754;51.568;5.048;2024-03-07T01:53:32;102463.25;;;11.00;68.06
69535;BME280;56754;51.568;5.048;2024-03-07T01:55:59;102449.34;;;10.98;68.07
69535;BME280;56754;51.568;5.048;2024-03-07T01:58:25;102456.03;;;10.96;68.08
69535;BME280;56754;51.568;5.048;2024-03-07T02:00:51;102460.31;;;10.97;68.45
69535;BME280;56754;51.568;5.048;2024-03-07T02:03:16;102450.69;;;10.96;68.71
69535;BME280;56754;51.568;5.048;2024-03-07T02:05:48;102448.28;;;10.94;68.23
69535;BME280;56754;51.568;5.048;2024-03-07T02:08:13;102443.22;;;10.92;68.27
69535;BME280;56754;51.568;5.048;2024-03-07T02:10:38;102443.47;;;10.91;68.12
69535;BME280;56754;51.568;5.048;2024-03-07T02:13:04;102441.06;;;10.89;68.43
69535;BME280;56754;51.568;5.048;2024-03-07T02:15:29;102441.34;;;10.88;68.37
69535;BME280;56754;51.568;5.048;2024-03-07T02:17:55;102446.19;;;10.86;68.10
69535;BME280;56754;51.568;5.048;2024-03-07T02:20:20;102437.63;;;10.84;68.44
69535;BME280;56754;51.568;5.048;2024-03-07T02:22:45;102441.38;;;10.83;68.50
69535;BME280;56754;51.568;5.048;2024-03-07T02:25:11;102435.19;;;10.82;68.38
69535;BME280;56754;51.568;5.048;2024-03-07T02:27:37;102437.06;;;10.82;68.62
69535;BME280;56754;51.568;5.048;2024-03-07T02:30:03;102433.59;;;10.81;68.89
69535;BME280;56754;51.568;5.048;2024-03-07T02:32:29;102432.25;;;10.79;68.77
69535;BME280;56754;51.568;5.048;2024-03-07T02:34:55;102426.13;;;10.78;68.69
69535;BME280;56754;51.568;5.048;2024-03-07T02:37:20;102428.00;;;10.78;68.68
69535;BME280;56754;51.568;5.048;2024-03-07T02:39:45;102429.88;;;10.77;68.69
69535;BME280;56754;51.568;5.048;2024-03-07T02:42:11;102430.13;;;10.76;68.67
69535;BME280;56754;51.568;5.048;2024-03-07T02:44:36;102424.00;;;10.75;69.05
69535;BME280;56754;51.568;5.048;2024-03-07T02:47:03;102422.66;;;10.73;68.76
69535;BME280;56754;51.568;5.048;2024-03-07T02:49:28;102418.91;;;10.74;68.94
69535;BME280;56754;51.568;5.048;2024-03-07T02:51:53;102419.72;;;10.74;69.04
69535;BME280;56754;51.568;5.048;2024-03-07T02:54:19;102431.22;;;10.75;68.25
69535;BME280;56754;51.568;5.048;2024-03-07T02:56:44;102420.50;;;10.75;68.75
69535;BME280;56754;51.568;5.048;2024-03-07T02:59:09;102418.91;;;10.74;69.00
69535;BME280;56754;51.568;5.048;2024-03-07T03:01:34;102414.63;;;10.73;68.67
69535;BME280;56754;51.568;5.048;2024-03-07T03:04:00;102413.03;;;10.72;68.88
69535;BME280;56754;51.568;5.048;2024-03-07T03:06:25;102408.22;;;10.68;69.06
69535;BME280;56754;51.568;5.048;2024-03-07T03:08:50;102414.63;;;10.67;68.55
69535;BME280;56754;51.568;5.048;2024-03-07T03:11:16;102411.16;;;10.67;68.76
69535;BME280;56754;51.568;5.048;2024-03-07T03:13:41;102405.31;;;10.65;69.13
69535;BME280;56754;51.568;5.048;2024-03-07T03:16:06;102404.75;;;10.63;68.35
69535;BME280;56754;51.568;5.048;2024-03-07T03:18:34;102400.22;;;10.63;68.64
69535;BME280;56754;51.568;5.048;2024-03-07T03:21:03;102403.16;;;10.62;68.87
69535;BME280;56754;51.568;5.048;2024-03-07T03:23:29;102406.09;;;10.60;68.74
69535;BME280;56754;51.568;5.048;2024-03-07T03:25:54;102410.66;;;10.60;69.04
69535;BME280;56754;51.568;5.048;2024-03-07T03:28:19;102405.56;;;10.58;68.88
69535;BME280;56754;51.568;5.048;2024-03-07T03:30:45;102405.06;;;10.56;68.95
69535;BME280;56754;51.568;5.048;2024-03-07T03:33:10;102398.09;;;10.55;69.00
69535;BME280;56754;51.568;5.048;2024-03-07T03:35:37;102397.28;;;10.55;68.86
69535;BME280;56754;51.568;5.048;2024-03-07T03:38:03;102396.50;;;10.54;68.80
69535;BME280;56754;51.568;5.048;2024-03-07T03:40:28;102395.69;;;10.54;68.99
69535;BME280;56754;51.568;5.048;2024-03-07T03:42:53;102394.34;;;10.51;68.98
69535;BME280;56754;51.568;5.048;2024-03-07T03:45:19;102394.34;;;10.51;68.94
69535;BME280;56754;51.568;5.048;2024-03-07T03:47:45;102387.41;;;10.50;69.13
69535;BME280;56754;51.568;5.048;2024-03-07T03:50:12;102387.41;;;10.50;69.16
69535;BME280;56754;51.568;5.048;2024-03-07T03:52:37;102388.47;;;10.49;69.34
69535;BME280;56754;51.568;5.048;2024-03-07T03:55:04;102389.00;;;10.46;68.96
69535;BME280;56754;51.568;5.048;2024-03-07T03:57:29;102391.97;;;10.44;69.15
69535;BME280;56754;51.568;5.048;2024-03-07T03:59:55;102391.44;;;10.42;68.99
69535;BME280;56754;51.568;5.048;2024-03-07T04:02:21;102385.28;;;10.42;69.14
69535;BME280;56754;51.568;5.048;2024-03-07T04:04:52;102383.66;;;10.41;69.09
69535;BME280;56754;51.568;5.048;2024-03-07T04:07:18;102385.53;;;10.40;69.36
69535;BME280;56754;51.568;5.048;2024-03-07T04:09:45;102386.63;;;10.39;69.87
69535;BME280;56754;51.568;5.048;2024-03-07T04:12:10;102386.88;;;10.38;69.20
69535;BME280;56754;51.568;5.048;2024-03-07T04:14:40;102391.44;;;10.37;69.19
69535;BME280;56754;51.568;5.048;2024-03-07T04:17:05;102379.13;;;10.36;69.42
69535;BME280;56754;51.568;5.048;2024-03-07T04:19:30;102384.75;;;10.35;69.41
69535;BME280;56754;51.568;5.048;2024-03-07T04:21:55;102378.59;;;10.34;69.51
69535;BME280;56754;51.568;5.048;2024-03-07T04:24:21;102372.72;;;10.32;69.16
69535;BME280;56754;51.568;5.048;2024-03-07T04:26:46;102375.38;;;10.32;69.56
69535;BME280;56754;51.568;5.048;2024-03-07T04:29:11;102373.00;;;10.31;69.13
69535;BME280;56754;51.568;5.048;2024-03-07T04:31:37;102380.22;;;10.30;69.17
69535;BME280;56754;51.568;5.048;2024-03-07T04:34:02;102374.34;;;10.28;69.34
69535;BME280;56754;51.568;5.048;2024-03-07T04:36:28;102377.28;;;10.27;69.32
69535;BME280;56754;51.568;5.048;2024-03-07T04:38:53;102381.25;;;10.24;68.94
69535;BME280;56754;51.568;5.048;2024-03-07T04:41:18;102376.72;;;10.24;69.20
69535;BME280;56754;51.568;5.048;2024-03-07T04:43:44;102370.84;;;10.22;69.14
69535;BME280;56754;51.568;5.048;2024-03-07T04:46:09;102374.84;;;10.20;69.26
69535;BME280;56754;51.568;5.048;2024-03-07T04:48:34;102379.38;;;10.19;69.37
69535;BME280;56754;51.568;5.048;2024-03-07T04:51:00;102372.44;;;10.18;69.24
69535;BME280;56754;51.568;5.048;2024-03-07T04:53:25;102375.38;;;10.17;69.07
69535;BME280;56754;51.568;5.048;2024-03-07T04:55:50;102376.16;;;10.17;69.55
69535;BME280;56754;51.568;5.048;2024-03-07T04:58:16;102374.56;;;10.16;69.32
69535;BME280;56754;51.568;5.048;2024-03-07T05:00:41;102371.09;;;10.16;69.29
69535;BME280;56754;51.568;5.048;2024-03-07T05:03:07;102372.19;;;10.15;69.50
69535;BME280;56754;51.568;5.048;2024-03-07T05:05:32;102374.31;;;10.13;69.37
69535;BME280;56754;51.568;5.048;2024-03-07T05:07:57;102369.22;;;10.11;69.23
69535;BME280;56754;51.568;5.048;2024-03-07T05:10:23;102367.63;;;10.10;69.52
69535;BME280;56754;51.568;5.048;2024-03-07T05:12:48;102369.50;;;10.10;69.20
69535;BME280;56754;51.568;5.048;2024-03-07T05:15:14;102370.59;;;10.09;69.55
69535;BME280;56754;51.568;5.048;2024-03-07T05:17:39;102368.97;;;10.08;69.31
69535;BME280;56754;51.568;5.048;2024-03-07T05:20:08;102368.16;;;10.07;69.64
69535;BME280;56754;51.568;5.048;2024-03-07T05:22:34;102373.50;;;10.07;69.64
69535;BME280;56754;51.568;5.048;2024-03-07T05:24:59;102369.25;;;10.06;69.93
69535;BME280;56754;51.568;5.048;2024-03-07T05:27:24;102375.63;;;10.05;69.84
69535;BME280;56754;51.568;5.048;2024-03-07T05:29:50;102372.19;;;10.05;69.77
69535;BME280;56754;51.568;5.048;2024-03-07T05:32:22;102373.50;;;10.02;69.46
69535;BME280;56754;51.568;5.048;2024-03-07T05:34:47;102369.25;;;10.01;69.42
69535;BME280;56754;51.568;5.048;2024-03-07T05:37:13;102368.97;;;10.02;70.14
69535;BME280;56754;51.568;5.048;2024-03-07T05:39:38;102369.25;;;10.01;69.47
69535;BME280;56754;51.568;5.048;2024-03-07T05:42:03;102364.97;;;10.00;69.81
69535;BME280;56754;51.568;5.048;2024-03-07T05:44:29;102371.13;;;10.00;69.82
69535;BME280;56754;51.568;5.048;2024-03-07T05:46:54;102366.81;;;9.99;69.45
69535;BME280;56754;51.568;5.048;2024-03-07T05:49:19;102367.91;;;9.98;69.84
69535;BME280;56754;51.568;5.048;2024-03-07T05:51:45;102368.97;;;9.97;69.48
69535;BME280;56754;51.568;5.048;2024-03-07T06:11:55;102361.75;;;9.88;69.98
69535;BME280;56754;51.568;5.048;2024-03-07T06:14:20;102362.56;;;9.88;70.05
69535;BME280;56754;51.568;5.048;2024-03-07T06:16:46;102362.56;;;9.88;69.86
69535;BME280;56754;51.568;5.048;2024-03-07T06:19:11;102364.41;;;9.88;70.02
69535;BME280;56754;51.568;5.048;2024-03-07T06:21:41;102366.56;;;9.86;69.60
69535;BME280;56754;51.568;5.048;2024-03-07T06:24:07;102369.25;;;9.86;70.93
69535;BME280;56754;51.568;5.048;2024-03-07T06:26:33;102364.69;;;9.86;70.33
69535;BME280;56754;51.568;5.048;2024-03-07T06:28:59;102359.34;;;9.86;70.00
69535;BME280;56754;51.568;5.048;2024-03-07T06:31:24;102360.44;;;9.85;69.58
69535;BME280;56754;51.568;5.048;2024-03-07T06:33:49;102355.88;;;9.86;69.66
69535;BME280;56754;51.568;5.048;2024-03-07T06:36:14;102363.09;;;9.85;69.99
69535;BME280;56754;51.568;5.048;2024-03-07T06:38:40;102354.00;;;9.86;69.93
69535;BME280;56754;51.568;5.048;2024-03-07T06:41:05;102368.16;;;9.87;70.23
69535;BME280;56754;51.568;5.048;2024-03-07T06:43:30;102358.56;;;9.86;69.82
69535;BME280;56754;51.568;5.048;2024-03-07T06:45:56;102358.56;;;9.86;69.60
69535;BME280;56754;51.568;5.048;2024-03-07T06:48:21;102359.34;;;9.86;70.19
69535;BME280;56754;51.568;5.048;2024-03-07T06:50:46;102355.88;;;9.86;70.00
69535;BME280;56754;51.568;5.048;2024-03-07T06:53:12;102361.75;;;9.88;69.60
69535;BME280;56754;51.568;5.048;2024-03-07T06:55:37;102354.00;;;9.86;69.67
69535;BME280;56754;51.568;5.048;2024-03-07T06:58:02;102360.69;;;9.89;69.50
69535;BME280;56754;51.568;5.048;2024-03-07T07:00:28;102364.16;;;9.89;70.12
69535;BME280;56754;51.568;5.048;2024-03-07T07:02:53;102358.03;;;9.89;70.10
69535;BME280;56754;51.568;5.048;2024-03-07T07:05:18;102358.03;;;9.89;70.16
69535;BME280;56754;51.568;5.048;2024-03-07T07:07:44;102357.50;;;9.92;70.09
69535;BME280;56754;51.568;5.048;2024-03-07T07:10:11;102364.72;;;9.91;69.64
69535;BME280;56754;51.568;5.048;2024-03-07T07:12:38;102359.88;;;9.93;69.86
69535;BME280;56754;51.568;5.048;2024-03-07T07:15:04;102371.41;;;9.94;69.50
69535;BME280;56754;51.568;5.048;2024-03-07T07:17:29;102369.50;;;9.94;69.44
69535;BME280;56754;51.568;5.048;2024-03-07T07:20:02;102358.84;;;9.94;69.32
69535;BME280;56754;51.568;5.048;2024-03-07T07:22:46;102361.22;;;9.96;69.71
69535;BME280;56754;51.568;5.048;2024-03-07T07:25:13;102362.84;;;9.97;69.42
69535;BME280;56754;51.568;5.048;2024-03-07T07:27:44;102363.34;;;9.99;68.77
69535;BME280;56754;51.568;5.048;2024-03-07T07:30:14;102360.44;;;10.00;68.94
69535;BME280;56754;51.568;5.048;2024-03-07T07:32:40;102370.84;;;10.02;68.42
69535;BME280;56754;51.568;5.048;2024-03-07T07:35:06;102363.38;;;10.04;68.44
69535;BME280;56754;51.568;5.048;2024-03-07T07:37:32;102359.38;;;10.07;68.63
69535;BME280;56754;51.568;5.048;2024-03-07T07:39:58;102353.72;;;10.08;70.07
69535;BME280;56754;51.568;5.048;2024-03-07T07:42:23;102355.63;;;10.13;68.82
69535;BME280;56754;51.568;5.048;2024-03-07T07:44:48;102359.88;;;10.14;68.77
69535;BME280;56754;51.568;5.048;2024-03-07T07:47:14;102357.75;;;10.16;69.73
69535;BME280;56754;51.568;5.048;2024-03-07T07:49:39;102357.22;;;10.19;69.73
69535;BME280;56754;51.568;5.048;2024-03-07T07:52:05;102355.88;;;10.21;69.34
69535;BME280;56754;51.568;5.048;2024-03-07T07:54:30;102353.75;;;10.23;68.37
69535;BME280;56754;51.568;5.048;2024-03-07T07:56:56;102352.66;;;10.24;68.16
69535;BME280;56754;51.568;5.048;2024-03-07T07:59:23;102350.00;;;10.24;67.47
69535;BME280;56754;51.568;5.048;2024-03-07T08:01:48;102354.25;;;10.25;67.90
69535;BME280;56754;51.568;5.048;2024-03-07T08:04:13;102349.47;;;10.28;68.24
69535;BME280;56754;51.568;5.048;2024-03-07T08:06:39;102351.88;;;10.29;67.97
69535;BME280;56754;51.568;5.048;2024-03-07T08:09:04;102345.47;;;10.30;68.63
69535;BME280;56754;51.568;5.048;2024-03-07T08:11:29;102349.19;;;10.34;68.56
69535;BME280;56754;51.568;5.048;2024-03-07T08:13:55;102346.78;;;10.38;68.37
69535;BME280;56754;51.568;5.048;2024-03-07T08:16:20;102344.66;;;10.40;68.10
69535;BME280;56754;51.568;5.048;2024-03-07T08:18:45;102345.19;;;10.42;67.58
69535;BME280;56754;51.568;5.048;2024-03-07T08:21:11;102340.34;;;10.44;67.72
69535;BME280;56754;51.568;5.048;2024-03-07T08:23:37;102340.91;;;10.46;67.67
69535;BME280;56754;51.568;5.048;2024-03-07T08:26:02;102342.50;;;10.47;67.47
69535;BME280;56754;51.568;5.048;2024-03-07T08:28:28;102335.81;;;10.50;66.47
69535;BME280;56754;51.568;5.048;2024-03-07T08:30:53;102337.41;;;10.51;66.63
69535;BME280;56754;51.568;5.048;2024-03-07T08:33:18;102336.34;;;10.52;65.96
69535;BME280;56754;51.568;5.048;2024-03-07T08:35:44;102340.59;;;10.53;66.11
69535;BME280;56754;51.568;5.048;2024-03-07T08:38:09;102338.47;;;10.55;67.13
69535;BME280;56754;51.568;5.048;2024-03-07T08:40:34;102338.47;;;10.60;67.17
69535;BME280;56754;51.568;5.048;2024-03-07T08:43:00;102331.22;;;10.65;66.93
69535;BME280;56754;51.568;5.048;2024-03-07T08:45:26;102340.28;;;10.69;66.81
69535;BME280;56754;51.568;5.048;2024-03-07T08:47:54;102323.69;;;10.73;66.35
69535;BME280;56754;51.568;5.048;2024-03-07T08:50:19;102316.22;;;10.75;65.61
69535;BME280;56754;51.568;5.048;2024-03-07T08:52:45;102318.59;;;10.76;65.91
69535;BME280;56754;51.568;5.048;2024-03-07T08:55:20;102322.59;;;10.79;66.31
69535;BME280;56754;51.568;5.048;2024-03-07T08:57:46;102327.94;;;10.84;65.88
69535;BME280;56754;51.568;5.048;2024-03-07T09:00:15;102319.38;;;10.87;66.20
69535;BME280;56754;51.568;5.048;2024-03-07T09:02:40;102319.63;;;10.90;65.90
69535;BME280;56754;51.568;5.048;2024-03-07T09:05:06;102319.31;;;10.97;65.68
69535;BME280;56754;51.568;5.048;2024-03-07T09:07:32;102320.38;;;11.01;65.67
69535;BME280;56754;51.568;5.048;2024-03-07T09:09:58;102309.66;;;11.06;65.37
69535;BME280;56754;51.568;5.048;2024-03-07T09:12:23;102314.47;;;11.09;65.26
69535;BME280;56754;51.568;5.048;2024-03-07T09:14:48;102315.75;;;11.12;65.21
69535;BME280;56754;51.568;5.048;2024-03-07T09:17:14;102311.72;;;11.14;65.16
69535;BME280;56754;51.568;5.048;2024-03-07T09:19:39;102311.19;;;11.18;64.74
69535;BME280;56754;51.568;5.048;2024-03-07T09:22:13;102316.81;;;11.16;64.98
69535;BME280;56754;51.568;5.048;2024-03-07T09:24:38;102317.34;;;11.18;64.60
69535;BME280;56754;51.568;5.048;2024-03-07T09:27:04;102320.84;;;11.19;64.66
69535;BME280;56754;51.568;5.048;2024-03-07T09:29:29;102310.13;;;11.19;64.31
69535;BME280;56754;51.568;5.048;2024-03-07T09:31:54;102319.19;;;11.23;65.05
69535;BME280;56754;51.568;5.048;2024-03-07T09:34:20;102317.53;;;11.32;65.50
69535;BME280;56754;51.568;5.048;2024-03-07T09:36:49;102315.91;;;11.36;65.28
69535;BME280;56754;51.568;5.048;2024-03-07T09:39:15;102319.38;;;11.36;64.80
69535;BME280;56754;51.568;5.048;2024-03-07T09:41:40;102304.13;;;11.37;64.73
69535;BME280;56754;51.568;5.048;2024-03-07T09:44:08;102310.25;;;11.37;64.28
69535;BME280;56754;51.568;5.048;2024-03-07T09:46:34;102300.34;;;11.38;63.89
69535;BME280;56754;51.568;5.048;2024-03-07T09:49:00;102300.59;;;11.42;63.23
69535;BME280;56754;51.568;5.048;2024-03-07T09:51:27;102294.19;;;11.43;62.85
69535;BME280;56754;51.568;5.048;2024-03-07T09:53:56;102299.75;;;11.46;62.81
69535;BME280;56754;51.568;5.048;2024-03-07T09:56:22;102297.63;;;11.48;62.48
69535;BME280;56754;51.568;5.048;2024-03-07T09:58:52;102292.75;;;11.50;62.15
69535;BME280;56754;51.568;5.048;2024-03-07T10:01:21;102291.69;;;11.51;61.71
69535;BME280;56754;51.568;5.048;2024-03-07T10:03:47;102301.31;;;11.52;61.56
69535;BME280;56754;51.568;5.048;2024-03-07T10:06:14;102297.28;;;11.55;61.81
69535;BME280;56754;51.568;5.048;2024-03-07T10:08:41;102303.44;;;11.55;61.81
69535;BME280;56754;51.568;5.048;2024-03-07T10:11:07;102290.59;;;11.57;61.80
69535;BME280;56754;51.568;5.048;2024-03-07T10:13:33;102286.81;;;11.58;61.80
69535;BME280;56754;51.568;5.048;2024-03-07T10:15:58;102281.19;;;11.60;61.88
69535;BME280;56754;51.568;5.048;2024-03-07T10:18:23;102280.09;;;11.61;61.79
69535;BME280;56754;51.568;5.048;2024-03-07T10:20:49;102285.19;;;11.63;61.73
69535;BME280;56754;51.568;5.048;2024-03-07T10:23:20;102278.75;;;11.64;61.95
69535;BME280;56754;51.568;5.048;2024-03-07T10:25:46;102283.81;;;11.65;61.79
69535;BME280;56754;51.568;5.048;2024-03-07T10:28:12;102284.63;;;11.66;61.74
69535;BME280;56754;51.568;5.048;2024-03-07T10:30:41;102275.78;;;11.65;61.59
69535;BME280;56754;51.568;5.048;2024-03-07T10:33:07;102270.41;;;11.65;61.83
69535;BME280;56754;51.568;5.048;2024-03-07T10:35:32;102266.69;;;11.66;61.71
69535;BME280;56754;51.568;5.048;2024-03-07T10:37:57;102268.28;;;11.67;61.98
69535;BME280;56754;51.568;5.048;2024-03-07T10:40:23;102269.06;;;11.68;61.79
69535;BME280;56754;51.568;5.048;2024-03-07T10:42:48;102265.31;;;11.69;61.81
69535;BME280;56754;51.568;5.048;2024-03-07T10:45:17;102267.19;;;11.68;62.24
69535;BME280;56754;51.568;5.048;2024-03-07T10:47:43;102261.56;;;11.70;62.23
69535;BME280;56754;51.568;5.048;2024-03-07T10:50:22;102267.72;;;11.70;62.35
69535;BME280;56754;51.568;5.048;2024-03-07T10:52:59;102263.97;;;11.71;62.46
69535;BME280;56754;51.568;5.048;2024-03-07T10:55:34;102262.34;;;11.70;62.73
69535;BME280;56754;51.568;5.048;2024-03-07T10:58:09;102263.16;;;11.71;62.47
69535;BME280;56754;51.568;5.048;2024-03-07T11:00:41;102263.16;;;11.71;62.64
69535;BME280;56754;51.568;5.048;2024-03-07T11:03:07;102262.09;;;11.72;62.44
69535;BME280;56754;51.568;5.048;2024-03-07T11:05:33;102258.63;;;11.71;62.54
69535;BME280;56754;51.568;5.048;2024-03-07T11:07:59;102247.91;;;11.71;62.54
69535;BME280;56754;51.568;5.048;2024-03-07T11:10:25;102247.91;;;11.71;62.73
69535;BME280;56754;51.568;5.048;2024-03-07T11:12:56;102242.53;;;11.71;62.50
69535;BME280;56754;51.568;5.048;2024-03-07T11:15:23;102240.66;;;11.72;62.03
69535;BME280;56754;51.568;5.048;2024-03-07T11:17:50;102243.34;;;11.72;62.18
69535;BME280;56754;51.568;5.048;2024-03-07T11:22:44;102231.53;;;11.73;62.67
69535;BME280;56754;51.568;5.048;2024-03-07T11:25:10;102237.69;;;11.73;62.71
69535;BME280;56754;51.568;5.048;2024-03-07T11:27:39;102233.13;;;11.74;62.72
69535;BME280;56754;51.568;5.048;2024-03-07T11:30:06;102234.72;;;11.75;62.66
69535;BME280;56754;51.568;5.048;2024-03-07T11:32:34;102230.97;;;11.76;62.73
69535;BME280;56754;51.568;5.048;2024-03-07T11:35:04;102220.25;;;11.76;63.02
69535;BME280;56754;51.568;5.048;2024-03-07T11:37:45;102219.16;;;11.77;62.71
69535;BME280;56754;51.568;5.048;2024-03-07T11:40:11;102226.94;;;11.78;62.87
69535;BME280;56754;51.568;5.048;2024-03-07T11:42:36;102225.03;;;11.79;62.62
69535;BME280;56754;51.568;5.048;2024-03-07T11:45:03;102213.22;;;11.80;63.03
69535;BME280;56754;51.568;5.048;2024-03-07T11:47:35;102210.56;;;11.80;63.06
69535;BME280;56754;51.568;5.048;2024-03-07T11:50:02;102208.69;;;11.80;62.66
69535;BME280;56754;51.568;5.048;2024-03-07T11:52:28;102196.09;;;11.81;62.83
69535;BME280;56754;51.568;5.048;2024-03-07T11:54:54;102199.56;;;11.81;62.71
69535;BME280;56754;51.568;5.048;2024-03-07T11:57:19;102193.41;;;11.81;62.76
69535;BME280;56754;51.568;5.048;2024-03-07T11:59:46;102193.91;;;11.83;62.66
69535;BME280;56754;51.568;5.048;2024-03-07T12:02:15;102184.81;;;11.84;62.13
69535;BME280;56754;51.568;5.048;2024-03-07T12:04:44;102185.59;;;11.84;62.38
69535;BME280;56754;51.568;5.048;2024-03-07T12:07:10;102182.13;;;11.84;62.65
69535;BME280;56754;51.568;5.048;2024-03-07T12:09:35;102176.78;;;11.84;62.58
69535;BME280;56754;51.568;5.048;2024-03-07T12:12:02;102166.63;;;11.86;62.21
69535;BME280;56754;51.568;5.048;2024-03-07T12:14:28;102171.66;;;11.88;62.27
69535;BME280;56754;51.568;5.048;2024-03-07T12:16:53;102170.59;;;11.89;61.92
69535;BME280;56754;51.568;5.048;2024-03-07T12:19:18;102152.66;;;11.89;61.80
69535;BME280;56754;51.568;5.048;2024-03-07T12:21:46;102150.47;;;11.91;61.86
69535;BME280;56754;51.568;5.048;2024-03-07T12:24:17;102147.50;;;11.93;62.29
69535;BME280;56754;51.568;5.048;2024-03-07T12:26:42;102138.38;;;11.94;61.95
69535;BME280;56754;51.568;5.048;2024-03-07T12:29:11;102142.38;;;11.96;62.26
69535;BME280;56754;51.568;5.048;2024-03-07T12:31:40;102133.50;;;12.01;62.31
69535;BME280;56754;51.568;5.048;2024-03-07T12:34:05;102137.44;;;12.03;62.35
69535;BME280;56754;51.568;5.048;2024-03-07T12:36:31;102133.41;;;12.06;61.98
69535;BME280;56754;51.568;5.048;2024-03-07T12:38:57;102125.09;;;12.07;61.54
69535;BME280;56754;51.568;5.048;2024-03-07T12:41:22;102116.47;;;12.11;61.44
69535;BME280;56754;51.568;5.048;2024-03-07T12:43:48;102120.16;;;12.15;61.58
69535;BME280;56754;51.568;5.048;2024-03-07T12:46:14;102115.53;;;12.20;61.48
69535;BME280;56754;51.568;5.048;2024-03-07T12:48:39;102120.84;;;12.25;61.56
69535;BME280;56754;51.568;5.048;2024-03-07T12:51:05;102102.81;;;12.31;61.31
69535;BME280;56754;51.568;5.048;2024-03-07T12:53:30;102108.91;;;12.37;61.30
69535;BME280;56754;51.568;5.048;2024-03-07T12:55:56;102113.38;;;12.41;61.39
69535;BME280;56754;51.568;5.048;2024-03-07T12:58:22;102104.16;;;12.47;61.47
69535;BME280;56754;51.568;5.048;2024-03-07T13:00:47;102096.84;;;12.53;61.12
69535;BME280;56754;51.568;5.048;2024-03-07T13:03:12;102096.78;;;12.58;61.03
69535;BME280;56754;51.568;5.048;2024-03-07T13:05:37;102093.53;;;12.61;61.00